Time;durP1;ratioP1;P1;durP2;ratioP2;P2;SDS_P1;SDS_P2;PMS_P1;PMS_P2;Temp;Humidity;BMP_temperature;BMP_pressure;BME280_temperature;BME280_humidity;BME280_pressure;Samples;Min_cycle;Max_cycle;Signal;HPM_P1;HPM_P2
2023/07/26 00:00:59;;;;;;;7.95;3.60;;;18.90;99.90;;;;;;5051743;28;20020;-60
2023/07/26 00:03:25;;;;;;;7.68;3.10;;;18.90;99.90;;;;;;5051572;28;20508;-60
2023/07/26 00:05:51;;;;;;;8.23;3.47;;;18.90;99.90;;;;;;5051702;28;20056;-60
2023/07/26 00:08:16;;;;;;;8.82;3.08;;;18.90;99.90;;;;;;5051445;28;20032;-60
2023/07/26 00:10:48;;;;;;;8.60;3.20;;;19.00;99.90;;;;;;5051315;28;20029;-60
2023/07/26 00:13:16;;;;;;;9.30;3.30;;;18.90;99.90;;;;;;5051031;28;20041;-60
2023/07/26 00:15:42;;;;;;;7.15;3.50;;;18.80;99.90;;;;;;5051644;28;20017;-60
2023/07/26 00:18:08;;;;;;;7.75;3.35;;;18.70;99.90;;;;;;5051279;28;20032;-61
2023/07/26 00:20:34;;;;;;;5.60;3.10;;;18.50;99.90;;;;;;5051009;28;20033;-61
2023/07/26 00:22:59;;;;;;;6.25;3.17;;;18.50;99.90;;;;;;5051429;28;20028;-60
2023/07/26 00:25:25;;;;;;;5.97;3.20;;;18.30;99.90;;;;;;5051194;28;20456;-60
2023/07/26 00:27:51;;;;;;;6.63;3.50;;;18.30;99.90;;;;;;5050833;28;20124;-60
2023/07/26 00:30:16;;;;;;;7.72;3.40;;;18.20;99.90;;;;;;5051196;28;20029;-60
2023/07/26 00:32:42;;;;;;;9.45;3.45;;;18.20;99.90;;;;;;5051305;28;20043;-60
2023/07/26 00:35:08;;;;;;;7.78;3.28;;;18.10;99.90;;;;;;5051318;28;20028;-61
2023/07/26 00:37:34;;;;;;;6.20;3.47;;;18.10;99.90;;;;;;5051691;28;20029;-60
2023/07/26 00:39:59;;;;;;;8.48;3.38;;;18.10;99.90;;;;;;5051030;28;20518;-60
2023/07/26 00:42:25;;;;;;;9.27;4.00;;;18.10;99.90;;;;;;5050797;28;20029;-60
2023/07/26 00:44:51;;;;;;;8.43;3.60;;;18.10;99.90;;;;;;5051156;28;20074;-60
2023/07/26 00:47:17;;;;;;;5.97;3.40;;;18.10;99.90;;;;;;5050959;28;20017;-61
2023/07/26 00:49:43;;;;;;;8.70;3.22;;;18.10;99.90;;;;;;5051129;28;20112;-60
2023/07/26 00:52:11;;;;;;;8.23;3.58;;;18.10;99.90;;;;;;5051154;28;20037;-60
2023/07/26 00:54:37;;;;;;;10.00;3.63;;;18.10;99.90;;;;;;5050972;28;20025;-61
2023/07/26 00:57:03;;;;;;;8.00;3.45;;;18.00;99.90;;;;;;5050742;28;20036;-60
2023/07/26 00:59:29;;;;;;;10.02;3.67;;;18.10;99.90;;;;;;5050935;28;20429;-60
2023/07/26 01:01:55;;;;;;;7.82;3.30;;;18.30;99.90;;;;;;5051360;28;20021;-60
2023/07/26 01:04:21;;;;;;;7.30;3.30;;;18.50;99.90;;;;;;5050959;28;20474;-60
2023/07/26 01:07:07;;;;;;;6.78;3.25;;;18.60;99.90;;;;;;5050587;28;20143;-60
2023/07/26 01:09:46;;;;;;;10.13;3.70;;;18.60;99.90;;;;;;5050712;28;20079;-60
2023/07/26 01:12:33;;;;;;;6.20;3.30;;;18.70;99.90;;;;;;5050376;28;20041;-59
2023/07/26 01:15:03;;;;;;;8.73;3.70;;;18.60;99.90;;;;;;5050673;28;20033;-61
2023/07/26 01:17:29;;;;;;;8.38;3.60;;;18.70;99.90;;;;;;5050732;28;20029;-60
2023/07/26 01:19:56;;;;;;;8.15;3.35;;;18.60;99.90;;;;;;5050575;28;20040;-61
2023/07/26 01:22:22;;;;;;;6.47;3.63;;;18.60;99.90;;;;;;5051073;28;20406;-60
2023/07/26 01:24:47;;;;;;;6.95;3.47;;;18.60;99.90;;;;;;5050413;28;20045;-61
2023/07/26 01:27:13;;;;;;;6.38;3.00;;;18.60;99.90;;;;;;5050416;28;20033;-60
2023/07/26 01:29:39;;;;;;;10.38;3.88;;;18.50;99.90;;;;;;5050602;28;20082;-61
2023/07/26 01:32:07;;;;;;;8.73;3.78;;;18.40;99.90;;;;;;5054718;28;20064;-61
2023/07/26 01:34:34;;;;;;;8.10;3.40;;;18.20;99.90;;;;;;5054476;28;20032;-60
2023/07/26 01:37:00;;;;;;;8.55;3.50;;;18.10;99.90;;;;;;5054436;28;20033;-60
2023/07/26 01:39:28;;;;;;;7.25;3.20;;;18.00;99.90;;;;;;5054919;28;20021;-60
2023/07/26 01:41:54;;;;;;;8.45;3.50;;;18.00;99.90;;;;;;5054127;28;20044;-60
2023/07/26 01:44:20;;;;;;;5.40;3.00;;;17.90;99.90;;;;;;5054318;28;20024;-60
2023/07/26 01:46:45;;;;;;;7.30;3.63;;;17.80;99.90;;;;;;5054236;28;20036;-60
2023/07/26 01:49:12;;;;;;;10.63;3.95;;;17.70;99.90;;;;;;5054194;28;20044;-60
2023/07/26 01:51:38;;;;;;;8.68;3.75;;;17.70;99.90;;;;;;5053932;28;20041;-60
2023/07/26 01:54:04;;;;;;;7.13;3.35;;;17.70;99.90;;;;;;5054450;28;20029;-60
2023/07/26 01:56:29;;;;;;;7.00;3.88;;;17.70;99.90;;;;;;5053726;28;20113;-60
2023/07/26 01:58:55;;;;;;;7.45;3.50;;;17.60;99.90;;;;;;5053788;28;20104;-61
2023/07/26 02:01:21;;;;;;;7.15;3.60;;;17.60;99.90;;;;;;5054316;28;20060;-61
2023/07/26 02:03:46;;;;;;;8.52;3.80;;;17.60;99.90;;;;;;5054030;28;20073;-60
2023/07/26 02:06:12;;;;;;;6.28;3.78;;;17.60;99.90;;;;;;5053738;28;20082;-61
2023/07/26 02:08:38;;;;;;;7.72;3.78;;;17.60;99.90;;;;;;5054165;28;20098;-60
2023/07/26 02:11:04;;;;;;;6.22;3.70;;;17.60;99.90;;;;;;5053354;28;20482;-60
2023/07/26 02:13:29;;;;;;;9.05;4.00;;;17.50;99.90;;;;;;5053621;28;20021;-60
2023/07/26 02:15:55;;;;;;;7.63;3.72;;;17.60;99.90;;;;;;5053690;28;20102;-60
2023/07/26 02:18:22;;;;;;;6.40;3.70;;;17.80;99.90;;;;;;5053561;28;20028;-61
2023/07/26 02:20:47;;;;;;;8.27;3.75;;;18.10;99.90;;;;;;5053491;28;20021;-60
2023/07/26 02:23:13;;;;;;;7.80;3.60;;;18.20;99.90;;;;;;5053247;28;20422;-61
2023/07/26 02:25:39;;;;;;;7.07;3.88;;;18.30;99.90;;;;;;5053412;28;20525;-60
2023/07/26 02:28:04;;;;;;;6.90;3.50;;;18.40;99.90;;;;;;5053350;28;20123;-60
2023/07/26 02:30:30;;;;;;;7.53;3.72;;;18.40;99.90;;;;;;5053753;28;20028;-60
2023/07/26 02:32:56;;;;;;;7.38;3.10;;;18.50;99.90;;;;;;5053307;28;20040;-60
2023/07/26 02:35:21;;;;;;;6.47;3.45;;;18.40;99.90;;;;;;5053584;28;20043;-60
2023/07/26 02:37:47;;;;;;;9.02;3.40;;;18.50;99.90;;;;;;5053018;28;20033;-60
2023/07/26 02:40:13;;;;;;;6.65;3.40;;;18.40;99.90;;;;;;5053348;28;20052;-60
2023/07/26 02:42:38;;;;;;;5.60;3.72;;;18.50;99.90;;;;;;5052548;28;20532;-60
2023/07/26 02:45:05;;;;;;;7.78;3.83;;;18.30;99.90;;;;;;5053508;28;20021;-60
2023/07/26 02:47:32;;;;;;;9.02;3.70;;;18.20;99.90;;;;;;5053032;28;20577;-61
2023/07/26 02:50:01;;;;;;;8.38;4.15;;;18.00;99.90;;;;;;5053034;28;20378;-61
2023/07/26 02:52:27;;;;;;;8.80;4.00;;;17.90;99.90;;;;;;5052738;28;20068;-60
2023/07/26 02:54:53;;;;;;;6.93;4.00;;;17.80;99.90;;;;;;5053351;28;20056;-60
2023/07/26 02:57:19;;;;;;;9.32;4.00;;;17.80;99.90;;;;;;5052869;28;20553;-60
2023/07/26 02:59:44;;;;;;;7.47;4.32;;;17.80;99.90;;;;;;5052904;28;20021;-61
2023/07/26 03:02:10;;;;;;;6.47;3.97;;;17.70;99.90;;;;;;5052795;28;20036;-61
2023/07/26 03:04:36;;;;;;;8.30;3.80;;;17.70;99.90;;;;;;5052768;28;20104;-60
2023/07/26 03:07:01;;;;;;;8.65;4.10;;;17.70;99.90;;;;;;5052441;28;20120;-61
2023/07/26 03:09:27;;;;;;;7.82;4.38;;;17.70;99.90;;;;;;5052685;28;20393;-60
2023/07/26 03:11:52;;;;;;;8.70;3.97;;;17.60;99.90;;;;;;5052575;28;20041;-61
2023/07/26 03:14:18;;;;;;;6.43;4.00;;;17.60;99.90;;;;;;5052815;28;20063;-60
2023/07/26 03:16:44;;;;;;;11.35;4.40;;;17.60;99.90;;;;;;5052542;28;20036;-61
2023/07/26 03:19:09;;;;;;;9.65;4.20;;;17.60;99.90;;;;;;5052281;28;20025;-60
2023/07/26 03:21:35;;;;;;;8.10;4.60;;;17.60;99.90;;;;;;5052424;28;20061;-61
2023/07/26 03:24:01;;;;;;;7.53;4.38;;;17.60;99.90;;;;;;5052410;28;20037;-61
2023/07/26 03:26:27;;;;;;;12.65;4.93;;;17.60;99.90;;;;;;5052325;28;20520;-61
2023/07/26 03:28:52;;;;;;;8.57;4.35;;;17.70;99.90;;;;;;5052297;28;20320;-60
2023/07/26 03:31:18;;;;;;;7.28;4.40;;;17.70;99.90;;;;;;5052692;28;20024;-60
2023/07/26 03:33:43;;;;;;;8.55;4.15;;;17.90;99.90;;;;;;5052100;28;20028;-60
2023/07/26 03:36:09;;;;;;;10.63;4.18;;;18.10;99.90;;;;;;5051816;28;20406;-59
2023/07/26 03:38:35;;;;;;;7.57;4.03;;;18.10;99.90;;;;;;5051188;28;20036;-60
2023/07/26 03:41:00;;;;;;;7.00;3.80;;;18.30;99.90;;;;;;5052094;28;20021;-60
2023/07/26 03:43:26;;;;;;;7.97;4.05;;;18.50;99.90;;;;;;5052019;28;20051;-60
2023/07/26 03:45:52;;;;;;;6.30;3.95;;;18.40;99.90;;;;;;5052150;28;20118;-59
2023/07/26 03:48:17;;;;;;;9.45;4.25;;;18.40;99.90;;;;;;5051779;28;20426;-59
2023/07/26 03:50:43;;;;;;;7.50;4.28;;;18.40;99.90;;;;;;5051865;28;20074;-60
2023/07/26 03:53:09;;;;;;;8.02;3.67;;;18.40;99.90;;;;;;5051631;28;20047;-59
2023/07/26 03:55:34;;;;;;;6.65;3.67;;;18.30;99.90;;;;;;5051140;28;20044;-60
2023/07/26 03:58:00;;;;;;;8.43;3.75;;;18.40;99.90;;;;;;5051700;28;20028;-60
2023/07/26 04:00:26;;;;;;;8.38;3.88;;;18.50;99.90;;;;;;5051969;28;20021;-60
2023/07/26 04:02:51;;;;;;;9.32;4.25;;;18.30;99.90;;;;;;5051574;28;20044;-61
2023/07/26 04:05:18;;;;;;;8.43;4.35;;;18.20;99.90;;;;;;5051322;28;20401;-60
2023/07/26 04:07:44;;;;;;;7.90;4.22;;;18.00;99.90;;;;;;5052043;28;20025;-60
2023/07/26 04:10:10;;;;;;;6.00;4.30;;;18.00;99.90;;;;;;5051553;28;20139;-60
2023/07/26 04:12:35;;;;;;;6.53;3.95;;;17.90;99.90;;;;;;5051382;28;20059;-60
2023/07/26 04:15:01;;;;;;;5.65;4.07;;;17.80;99.90;;;;;;5051472;28;20059;-60
2023/07/26 04:17:27;;;;;;;9.27;4.68;;;17.80;99.90;;;;;;5051289;28;20079;-60
2023/07/26 04:19:52;;;;;;;7.00;4.50;;;17.70;99.90;;;;;;5051069;28;20021;-60
2023/07/26 04:22:18;;;;;;;9.05;4.63;;;17.70;99.90;;;;;;5051751;28;20029;-61
2023/07/26 04:24:45;;;;;;;6.22;4.30;;;17.70;99.90;;;;;;5051199;28;20440;-60
2023/07/26 04:27:11;;;;;;;7.28;4.82;;;17.70;99.90;;;;;;5051428;28;20040;-59
2023/07/26 04:29:37;;;;;;;6.53;4.53;;;17.60;99.90;;;;;;5051605;28;20025;-61
2023/07/26 04:32:03;;;;;;;7.60;4.35;;;17.60;99.90;;;;;;5051185;28;20606;-61
2023/07/26 04:34:29;;;;;;;7.50;4.70;;;17.60;99.90;;;;;;5050988;28;20021;-60
2023/07/26 04:36:55;;;;;;;5.75;4.18;;;17.50;99.90;;;;;;5051221;28;20029;-60
2023/07/26 04:39:20;;;;;;;8.70;4.80;;;17.50;99.90;;;;;;5049986;28;20148;-60
2023/07/26 04:41:46;;;;;;;8.45;4.85;;;17.50;99.90;;;;;;5051723;28;20025;-60
2023/07/26 04:44:12;;;;;;;8.25;5.25;;;17.40;99.90;;;;;;5051103;28;20040;-60
2023/07/26 04:46:37;;;;;;;7.25;4.75;;;17.40;99.90;;;;;;5051111;28;20021;-60
2023/07/26 04:49:03;;;;;;;6.50;4.40;;;17.40;99.90;;;;;;5050638;28;20140;-60
2023/07/26 04:51:29;;;;;;;6.05;4.80;;;17.60;99.90;;;;;;5051052;28;20040;-60
2023/07/26 04:53:55;;;;;;;7.80;4.53;;;17.70;99.90;;;;;;5050303;28;20535;-61
2023/07/26 04:56:25;;;;;;;6.70;4.22;;;17.90;99.90;;;;;;5051131;28;20112;-60
2023/07/26 04:58:51;;;;;;;5.13;4.28;;;18.00;99.90;;;;;;5051031;28;20027;-60
2023/07/26 05:01:17;;;;;;;7.47;4.60;;;18.10;99.90;;;;;;5051277;28;20488;-61
2023/07/26 05:03:42;;;;;;;6.30;4.40;;;18.10;99.90;;;;;;5050658;28;20037;-59
2023/07/26 05:06:10;;;;;;;7.53;4.65;;;18.10;99.90;;;;;;5053199;28;20017;-60
2023/07/26 05:08:36;;;;;;;8.50;4.32;;;18.00;99.90;;;;;;5055073;28;20063;-60
2023/07/26 05:11:01;;;;;;;9.00;4.93;;;18.00;99.90;;;;;;5054946;28;20069;-60
2023/07/26 05:13:27;;;;;;;7.38;4.28;;;18.10;99.90;;;;;;5054925;28;20033;-60
2023/07/26 05:15:53;;;;;;;8.18;4.70;;;18.10;99.90;;;;;;5054909;28;20298;-60
2023/07/26 05:18:19;;;;;;;6.85;4.30;;;18.20;99.90;;;;;;5054335;28;20109;-60
2023/07/26 05:20:47;;;;;;;7.20;4.30;;;17.90;99.90;;;;;;5054796;28;20025;-60
2023/07/26 05:23:13;;;;;;;7.47;4.40;;;17.80;99.90;;;;;;5055036;28;20021;-60
2023/07/26 05:25:42;;;;;;;7.50;4.25;;;17.70;99.90;;;;;;5054760;28;20049;-60
2023/07/26 05:28:07;;;;;;;8.80;4.78;;;17.70;99.90;;;;;;5054611;28;20049;-60
2023/07/26 05:30:42;;;;;;;6.97;4.43;;;17.60;99.90;;;;;;5054545;28;20437;-61
2023/07/26 05:33:08;;;;;;;5.70;4.45;;;17.50;99.90;;;;;;5054259;28;20067;-61
2023/07/26 05:35:34;;;;;;;9.25;4.60;;;17.50;99.90;;;;;;5054482;28;20432;-60
2023/07/26 05:38:00;;;;;;;7.00;4.18;;;17.50;99.90;;;;;;5054844;28;20052;-60
2023/07/26 05:40:26;;;;;;;8.27;4.70;;;17.50;99.90;;;;;;5054395;28;20025;-60
2023/07/26 05:42:52;;;;;;;7.20;4.68;;;17.50;99.90;;;;;;5054443;28;20105;-60
2023/07/26 05:45:17;;;;;;;8.82;4.93;;;17.50;99.90;;;;;;5053062;28;20025;-60
2023/07/26 05:47:43;;;;;;;8.50;4.90;;;17.50;99.90;;;;;;5053938;28;20024;-61
2023/07/26 05:50:12;;;;;;;6.90;4.72;;;17.50;99.90;;;;;;5054569;28;20041;-60
2023/07/26 05:52:39;;;;;;;8.07;4.65;;;17.50;99.90;;;;;;5054103;28;20040;-61
2023/07/26 05:55:05;;;;;;;7.13;4.63;;;17.50;99.90;;;;;;5054407;28;20082;-61
2023/07/26 05:57:30;;;;;;;9.02;4.47;;;17.50;99.90;;;;;;5054395;28;20517;-61
2023/07/26 05:59:56;;;;;;;8.55;5.07;;;17.50;99.90;;;;;;5053859;28;20029;-61
2023/07/26 06:02:22;;;;;;;6.65;4.53;;;17.50;99.90;;;;;;5052339;28;20474;-60
2023/07/26 06:04:48;;;;;;;8.27;5.07;;;17.40;99.90;;;;;;5053900;28;20024;-60
2023/07/26 06:07:16;;;;;;;6.10;4.30;;;17.60;99.90;;;;;;5053993;28;20055;-60
2023/07/26 06:09:42;;;;;;;6.28;3.72;;;17.80;99.90;;;;;;5054275;28;20021;-60
2023/07/26 06:12:08;;;;;;;6.07;4.00;;;18.00;99.90;;;;;;5053666;28;20111;-60
2023/07/26 06:14:34;;;;;;;6.55;3.67;;;18.10;99.90;;;;;;5053589;28;20044;-60
2023/07/26 06:17:00;;;;;;;6.85;4.25;;;18.10;99.90;;;;;;5052260;28;20021;-61
2023/07/26 06:19:25;;;;;;;6.43;4.10;;;18.20;99.90;;;;;;5053436;28;20056;-60
2023/07/26 06:21:55;;;;;;;6.25;3.90;;;18.20;99.90;;;;;;5052881;28;20099;-60
2023/07/26 06:24:22;;;;;;;7.57;4.13;;;18.30;99.90;;;;;;5053495;28;20057;-60
2023/07/26 06:26:48;;;;;;;6.80;3.80;;;18.30;99.90;;;;;;5053531;28;20032;-60
2023/07/26 06:29:14;;;;;;;6.70;4.00;;;18.40;99.90;;;;;;5053419;28;20021;-60
2023/07/26 06:31:39;;;;;;;4.82;3.38;;;18.50;99.90;;;;;;5053302;28;20481;-61
2023/07/26 06:34:05;;;;;;;7.38;3.97;;;18.60;99.90;;;;;;5053344;28;20018;-61
2023/07/26 06:36:31;;;;;;;6.50;3.70;;;18.60;99.90;;;;;;5053371;28;20393;-60
2023/07/26 06:38:56;;;;;;;6.63;4.03;;;18.50;99.90;;;;;;5053199;28;20135;-60
2023/07/26 06:41:22;;;;;;;6.32;4.03;;;18.40;99.90;;;;;;5053230;28;20033;-60
2023/07/26 06:43:48;;;;;;;6.25;3.88;;;18.30;99.90;;;;;;5053244;28;20024;-61
2023/07/26 06:46:13;;;;;;;8.10;4.18;;;18.20;99.90;;;;;;5052833;28;20029;-61
2023/07/26 06:48:39;;;;;;;7.53;4.40;;;18.10;99.90;;;;;;5052895;28;20029;-60
2023/07/26 06:51:05;;;;;;;8.40;4.00;;;18.20;99.90;;;;;;5053206;28;20032;-61
2023/07/26 06:53:30;;;;;;;7.28;4.47;;;18.10;99.90;;;;;;5052932;28;20041;-60
2023/07/26 06:56:00;;;;;;;7.50;4.30;;;18.00;99.90;;;;;;5053364;28;20021;-60
2023/07/26 06:58:26;;;;;;;8.32;4.50;;;18.00;99.90;;;;;;5052952;28;20025;-61
2023/07/26 07:00:53;;;;;;;7.82;4.40;;;18.00;99.90;;;;;;5052563;28;20121;-60
2023/07/26 07:03:19;;;;;;;6.43;4.25;;;18.00;99.90;;;;;;5053252;28;20060;-60
2023/07/26 07:05:45;;;;;;;8.82;4.68;;;18.00;99.90;;;;;;5052972;28;20056;-61
2023/07/26 07:08:10;;;;;;;8.27;5.25;;;18.00;99.90;;;;;;5052711;28;20086;-61
2023/07/26 07:10:36;;;;;;;8.18;4.93;;;18.00;99.90;;;;;;5052488;28;20399;-60
2023/07/26 07:13:02;;;;;;;7.80;4.70;;;18.10;99.90;;;;;;5052998;28;20466;-60
2023/07/26 07:15:27;;;;;;;9.38;5.10;;;18.10;99.90;;;;;;5052269;28;20418;-60
2023/07/26 07:17:53;;;;;;;8.40;5.30;;;18.20;99.90;;;;;;5052408;28;20033;-60
2023/07/26 07:20:19;;;;;;;9.77;5.38;;;18.30;99.90;;;;;;5052813;28;20033;-59
2023/07/26 07:22:45;;;;;;;6.85;4.47;;;18.30;99.90;;;;;;5052416;28;20021;-61
2023/07/26 07:25:11;;;;;;;5.70;4.47;;;18.50;99.90;;;;;;5052329;28;20094;-61
2023/07/26 07:27:36;;;;;;;10.00;4.70;;;18.60;99.90;;;;;;5052336;28;20033;-61
2023/07/26 07:30:03;;;;;;;9.15;4.75;;;18.80;99.90;;;;;;5051853;28;20029;-61
2023/07/26 07:32:28;;;;;;;8.48;4.70;;;18.80;99.90;;;;;;5052345;28;20041;-61
2023/07/26 07:34:55;;;;;;;7.10;4.45;;;19.00;99.90;;;;;;5052183;28;20045;-61
2023/07/26 07:37:21;;;;;;;8.63;4.63;;;19.10;99.90;;;;;;5051989;28;20533;-60
2023/07/26 07:39:47;;;;;;;7.30;4.20;;;19.00;99.90;;;;;;5052471;28;20504;-60
2023/07/26 07:42:12;;;;;;;7.65;4.32;;;19.00;99.90;;;;;;5051760;28;20421;-62
2023/07/26 07:44:38;;;;;;;10.60;4.57;;;19.10;99.90;;;;;;5052064;28;20025;-60
2023/07/26 07:47:04;;;;;;;6.70;4.03;;;19.20;99.90;;;;;;5051994;28;20108;-60
2023/07/26 07:49:29;;;;;;;10.15;4.93;;;19.30;99.90;;;;;;5052295;28;20445;-60
2023/07/26 07:51:55;;;;;;;6.60;4.53;;;19.30;99.90;;;;;;5051854;28;20033;-60
2023/07/26 07:54:21;;;;;;;8.02;4.80;;;19.10;99.90;;;;;;5051913;28;20048;-60
2023/07/26 07:56:48;;;;;;;10.25;5.13;;;19.10;99.90;;;;;;5051717;28;20029;-60
2023/07/26 07:59:14;;;;;;;7.65;4.85;;;18.90;99.90;;;;;;5051903;28;20044;-60
2023/07/26 08:01:40;;;;;;;6.78;4.40;;;18.90;99.90;;;;;;5050503;28;20582;-60
2023/07/26 08:04:06;;;;;;;7.22;4.82;;;18.80;99.90;;;;;;5050304;28;20071;-60
2023/07/26 08:06:32;;;;;;;9.07;4.78;;;18.80;99.90;;;;;;5051899;28;20031;-60
2023/07/26 08:08:58;;;;;;;8.07;4.78;;;18.80;99.90;;;;;;5051415;28;20040;-60
2023/07/26 08:11:24;;;;;;;9.10;5.03;;;18.80;99.90;;;;;;5051459;28;20036;-60
2023/07/26 08:13:49;;;;;;;9.32;5.22;;;18.70;99.90;;;;;;5051486;28;20028;-60
2023/07/26 08:16:15;;;;;;;10.45;5.47;;;18.70;99.90;;;;;;5051391;28;20033;-60
2023/07/26 08:18:41;;;;;;;8.77;4.68;;;18.80;99.90;;;;;;5051328;28;20111;-60
2023/07/26 08:21:07;;;;;;;7.82;4.90;;;18.80;99.90;;;;;;5051763;28;20029;-60
2023/07/26 08:23:32;;;;;;;9.77;5.65;;;18.80;99.90;;;;;;5051297;28;20040;-60
2023/07/26 08:26:07;;;;;;;9.43;5.60;;;18.80;99.90;;;;;;5050955;28;20394;-61
2023/07/26 08:28:34;;;;;;;10.70;5.70;;;18.70;99.90;;;;;;5051293;28;20163;-61
2023/07/26 08:31:00;;;;;;;8.18;5.38;;;18.80;99.90;;;;;;5051366;28;20032;-60
2023/07/26 08:33:26;;;;;;;8.68;5.00;;;18.80;99.90;;;;;;5051582;28;20063;-59
2023/07/26 08:35:51;;;;;;;10.85;5.97;;;18.80;99.90;;;;;;5051275;28;20057;-60
2023/07/26 08:38:20;;;;;;;9.48;5.28;;;18.80;99.90;;;;;;5049727;28;20051;-60
2023/07/26 08:40:47;;;;;;;7.80;4.82;;;18.90;99.90;;;;;;5050597;28;20040;-60
2023/07/26 08:43:14;;;;;;;6.00;4.40;;;19.20;99.90;;;;;;5051195;28;20432;-61
2023/07/26 08:45:44;;;;;;;5.18;3.88;;;19.40;99.90;;;;;;5051214;28;20032;-60
2023/07/26 08:48:10;;;;;;;4.70;3.70;;;19.50;99.90;;;;;;5051037;28;20390;-61
2023/07/26 08:50:38;;;;;;;6.10;3.88;;;19.70;99.90;;;;;;5050949;28;20032;-61
2023/07/26 08:53:08;;;;;;;4.53;3.03;;;19.80;99.90;;;;;;5050903;28;20040;-61
2023/07/26 08:55:34;;;;;;;5.10;3.55;;;19.90;99.90;;;;;;5051111;28;20029;-60
2023/07/26 08:58:00;;;;;;;5.18;3.00;;;20.10;99.90;;;;;;5051001;28;20060;-60
2023/07/26 09:00:27;;;;;;;4.68;3.10;;;20.20;99.90;;;;;;5051215;28;20485;-60
2023/07/26 09:02:57;;;;;;;3.83;2.50;;;20.20;99.90;;;;;;5051069;28;20029;-60
2023/07/26 09:05:23;;;;;;;4.35;2.95;;;20.30;99.90;;;;;;5051100;28;20024;-61
2023/07/26 09:07:51;;;;;;;4.10;2.70;;;20.30;99.90;;;;;;5051013;28;20052;-61
2023/07/26 09:10:29;;;;;;;3.85;2.80;;;20.30;99.90;;;;;;5050459;28;20064;-61
2023/07/26 09:13:09;;;;;;;3.28;2.90;;;20.20;99.90;;;;;;5050799;28;20095;-61
2023/07/26 09:15:37;;;;;;;4.93;2.70;;;20.20;99.90;;;;;;5050880;28;20029;-60
2023/07/26 09:18:04;;;;;;;3.35;2.72;;;20.10;99.90;;;;;;5050673;28;20056;-61
2023/07/26 09:20:31;;;;;;;4.95;3.13;;;20.00;99.90;;;;;;5051192;28;20053;-60
2023/07/26 09:23:05;;;;;;;4.65;3.05;;;19.90;99.90;;;;;;5050806;28;20021;-61
2023/07/26 09:25:43;;;;;;;4.60;3.00;;;19.90;99.90;;;;;;5050205;28;20103;-61
2023/07/26 09:28:13;;;;;;;4.88;2.60;;;20.00;99.90;;;;;;5050684;28;20033;-61
2023/07/26 09:30:45;;;;;;;4.82;2.60;;;20.20;99.90;;;;;;5051044;28;20071;-61
2023/07/26 09:33:12;;;;;;;3.88;2.40;;;20.40;99.90;;;;;;5050637;28;20037;-61
2023/07/26 09:35:49;;;;;;;5.32;2.00;;;20.70;99.90;;;;;;5050553;28;20506;-61
2023/07/26 09:38:17;;;;;;;4.97;1.60;;;20.80;99.90;;;;;;5050578;28;20035;-61
2023/07/26 09:40:43;;;;;;;4.63;1.00;;;20.70;99.90;;;;;;5050576;28;20064;-61
2023/07/26 09:43:09;;;;;;;4.45;1.17;;;20.60;99.90;;;;;;5050895;28;20029;-61
2023/07/26 09:45:36;;;;;;;2.42;1.00;;;20.80;99.90;;;;;;5050748;28;20096;-61
2023/07/26 09:48:07;;;;;;;4.97;1.63;;;20.80;99.90;;;;;;5050349;28;20079;-61
2023/07/26 09:50:32;;;;;;;2.83;0.90;;;20.80;99.90;;;;;;5050530;28;20037;-61
2023/07/26 09:52:58;;;;;;;1.90;1.00;;;20.90;99.90;;;;;;5053557;28;20102;-61
2023/07/26 09:55:26;;;;;;;3.45;1.15;;;20.90;99.90;;;;;;5053992;28;20025;-61
2023/07/26 09:57:54;;;;;;;1.80;0.90;;;21.00;99.90;;;;;;5054257;28;20391;-61
2023/07/26 10:00:21;;;;;;;1.92;0.88;;;21.40;99.90;;;;;;5054057;28;20018;-61
2023/07/26 10:02:56;;;;;;;1.48;0.75;;;21.50;99.90;;;;;;5054017;28;20447;-61
2023/07/26 10:05:24;;;;;;;1.80;0.90;;;21.70;99.90;;;;;;5053893;28;20033;-61
2023/07/26 10:07:51;;;;;;;2.85;1.10;;;21.90;99.90;;;;;;5054033;28;20021;-61
2023/07/26 10:10:18;;;;;;;1.77;0.80;;;22.00;99.90;;;;;;5053870;28;20035;-61
2023/07/26 10:12:45;;;;;;;1.30;0.80;;;22.10;99.90;;;;;;5053577;28;20040;-61
2023/07/26 10:15:16;;;;;;;1.00;0.70;;;22.20;99.90;;;;;;5053806;28;20098;-61
2023/07/26 10:17:47;;;;;;;2.13;0.80;;;22.30;99.90;;;;;;5053641;28;20033;-61
2023/07/26 10:20:14;;;;;;;1.95;0.93;;;22.30;99.90;;;;;;5034039;28;20022;-61
2023/07/26 10:22:42;;;;;;;3.00;0.85;;;22.30;99.90;;;;;;5033294;28;20047;-61
2023/07/26 10:25:08;;;;;;;3.28;0.82;;;22.20;99.90;;;;;;5033618;28;20414;-61
2023/07/26 10:27:34;;;;;;;2.90;1.13;;;22.30;99.90;;;;;;5033925;28;20025;-61
2023/07/26 10:30:00;;;;;;;2.78;0.80;;;22.40;99.90;;;;;;5033382;28;20033;-61
2023/07/26 10:32:26;;;;;;;1.83;0.90;;;22.30;99.90;;;;;;5033915;28;20038;-61
2023/07/26 10:34:56;;;;;;;2.33;0.85;;;22.10;99.90;;;;;;5033440;28;20108;-61
2023/07/26 10:37:23;;;;;;;1.52;0.80;;;22.10;99.90;;;;;;5033076;28;20040;-61
2023/07/26 10:39:49;;;;;;;2.55;0.90;;;22.10;99.90;;;;;;5033882;28;20083;-61
2023/07/26 10:42:29;;;;;;;1.55;0.80;;;22.20;99.90;;;;;;5033387;28;20030;-61
2023/07/26 10:44:58;;;;;;;1.92;0.90;;;22.30;99.90;;;;;;5033380;28;20512;-61
2023/07/26 10:47:24;;;;;;;2.92;0.73;;;22.30;99.90;;;;;;5033122;28;20021;-61
2023/07/26 10:49:52;;;;;;;2.13;0.80;;;22.40;99.90;;;;;;5033221;28;20486;-61
2023/07/26 10:52:19;;;;;;;1.48;0.77;;;22.50;99.90;;;;;;5032692;28;20042;-61
2023/07/26 10:54:48;;;;;;;2.45;0.90;;;22.50;99.90;;;;;;5033091;28;20022;-61
2023/07/26 10:57:16;;;;;;;1.60;0.82;;;22.50;99.90;;;;;;5032166;28;20128;-61
2023/07/26 11:00:16;;;;;;;1.38;0.80;;;22.60;99.90;;;;;;5032943;28;20029;-61
2023/07/26 11:03:01;;;;;;;3.35;1.00;;;22.70;99.90;;;;;;5032555;28;20412;-61
2023/07/26 11:05:29;;;;;;;3.15;0.90;;;22.50;99.90;;;;;;5032964;28;20079;-60
2023/07/26 11:07:55;;;;;;;2.35;0.90;;;22.30;99.90;;;;;;5032793;28;20034;-61
2023/07/26 11:10:24;;;;;;;4.35;1.60;;;22.30;99.90;;;;;;5032850;28;20076;-61
2023/07/26 11:13:03;;;;;;;3.33;1.20;;;21.90;99.90;;;;;;5033638;28;20040;-61
2023/07/26 11:15:29;;;;;;;4.18;1.23;;;21.70;99.90;;;;;;5052730;28;20033;-61
2023/07/26 11:17:55;;;;;;;3.47;1.10;;;21.80;99.90;;;;;;5052348;28;20041;-61
2023/07/26 11:20:21;;;;;;;4.00;1.30;;;22.00;99.90;;;;;;5052331;28;20040;-61
2023/07/26 11:22:47;;;;;;;3.33;1.30;;;22.30;99.90;;;;;;5052464;28;20024;-61
2023/07/26 11:25:13;;;;;;;3.92;1.20;;;22.40;99.90;;;;;;5052550;28;20126;-61
2023/07/26 11:27:38;;;;;;;2.85;1.02;;;22.70;99.90;;;;;;5052313;28;20029;-61
2023/07/26 11:30:05;;;;;;;1.40;0.80;;;22.50;99.90;;;;;;5052337;28;20078;-61
2023/07/26 11:32:31;;;;;;;1.48;0.70;;;22.60;99.90;;;;;;5052522;28;20379;-61
2023/07/26 11:34:58;;;;;;;3.80;1.25;;;22.80;99.90;;;;;;5051817;28;20115;-61
2023/07/26 11:37:24;;;;;;;3.40;1.25;;;22.80;99.90;;;;;;5052117;28;20024;-61
2023/07/26 11:40:08;;;;;;;2.88;0.90;;;22.80;99.90;;;;;;5084353;28;20021;-61
2023/07/26 11:42:35;;;;;;;1.90;1.00;;;22.90;99.90;;;;;;5052093;28;20036;-61
2023/07/26 11:45:06;;;;;;;3.63;1.00;;;23.00;99.90;;;;;;5052072;28;20066;-62
2023/07/26 11:47:35;;;;;;;2.40;1.00;;;22.90;99.90;;;;;;5052258;28;20116;-61
2023/07/26 11:50:04;;;;;;;1.73;0.90;;;22.80;99.90;;;;;;5051736;28;20025;-61
2023/07/26 11:52:30;;;;;;;2.35;0.93;;;22.60;99.90;;;;;;5051906;28;20456;-61
2023/07/26 11:55:01;;;;;;;3.00;1.00;;;22.70;99.90;;;;;;5051906;28;20021;-62
2023/07/26 11:57:28;;;;;;;3.42;1.00;;;22.70;99.90;;;;;;5051808;28;20029;-61
2023/07/26 11:59:55;;;;;;;2.90;1.10;;;22.90;99.90;;;;;;5051971;28;20047;-61
2023/07/26 12:02:22;;;;;;;4.18;1.02;;;22.70;99.90;;;;;;5051652;28;20037;-61
2023/07/26 12:05:13;;;;;;;2.95;0.80;;;22.60;99.90;;;;;;5051762;28;20024;-61
2023/07/26 12:07:47;;;;;;;1.92;0.80;;;22.40;99.90;;;;;;5051639;28;20021;-61
2023/07/26 12:10:13;;;;;;;2.67;0.80;;;22.10;99.90;;;;;;5051783;28;20025;-61
2023/07/26 12:12:40;;;;;;;2.45;0.90;;;22.00;99.90;;;;;;5052021;28;20070;-61
2023/07/26 12:15:08;;;;;;;2.55;1.00;;;21.90;99.90;;;;;;5050518;28;20104;-61
2023/07/26 12:17:34;;;;;;;3.63;0.90;;;21.90;99.90;;;;;;5051449;28;20565;-61
2023/07/26 12:20:06;;;;;;;3.70;1.17;;;21.80;99.90;;;;;;5050878;28;20029;-61
2023/07/26 12:22:33;;;;;;;4.03;1.10;;;21.80;99.90;;;;;;5051329;28;20033;-61
2023/07/26 12:25:03;;;;;;;3.08;1.17;;;22.00;99.90;;;;;;5051342;28;20055;-61
2023/07/26 12:27:34;;;;;;;5.28;1.55;;;22.10;99.90;;;;;;5051177;28;20029;-61
2023/07/26 12:30:00;;;;;;;3.85;1.00;;;22.30;99.90;;;;;;5050987;28;20063;-61
2023/07/26 12:32:25;;;;;;;2.33;1.00;;;22.60;99.90;;;;;;5050804;28;20033;-61
2023/07/26 12:34:51;;;;;;;2.78;1.00;;;22.80;99.90;;;;;;5051691;28;20024;-61
2023/07/26 12:37:17;;;;;;;1.67;0.75;;;23.30;99.90;;;;;;5051592;28;20440;-61
2023/07/26 12:39:45;;;;;;;2.70;0.90;;;23.70;99.90;;;;;;5050651;28;20123;-61
2023/07/26 12:42:11;;;;;;;1.75;0.63;;;23.80;99.90;;;;;;5051471;28;20460;-61
2023/07/26 12:44:37;;;;;;;1.75;0.70;;;23.90;99.90;;;;;;5051003;28;20025;-61